createdAt,value
2018-09-21T00:00:12.368Z,91.77
2018-09-21T00:01:12.352Z,91.19
2018-09-21T00:02:12.338Z,91.49
2018-09-21T00:03:12.319Z,91.77
2018-09-21T00:04:12.306Z,91.19
2018-09-21T00:05:12.288Z,90.53
2018-09-21T00:06:12.270Z,89.95
2018-09-21T00:07:12.256Z,89.95
2018-09-21T00:08:12.243Z,90.81
2018-09-21T00:09:12.230Z,91.49
2018-09-21T00:10:12.415Z,90.91
2018-09-21T00:11:12.194Z,91.49
2018-09-21T00:12:12.177Z,92.06
2018-09-21T00:13:12.161Z,91.67
2018-09-21T00:14:12.146Z,92.25
2018-09-21T00:15:12.128Z,91.67
2018-09-21T00:16:12.125Z,92.11
2018-09-21T00:17:12.100Z,92.35
2018-09-21T00:18:12.082Z,92.49
2018-09-21T00:19:12.065Z,92.30
2018-09-21T00:20:12.058Z,92.49
2018-09-21T00:21:12.030Z,92.78
2018-09-21T00:22:12.019Z,93.45
2018-09-21T00:23:12.002Z,92.78
2018-09-21T00:24:11.986Z,92.49
2018-09-21T00:25:11.966Z,92.11
2018-09-21T00:26:11.955Z,91.86
2018-09-21T00:27:11.945Z,91.86
2018-09-21T00:28:11.920Z,91.86
2018-09-21T00:29:11.906Z,92.44
2018-09-21T00:30:11.888Z,91.86
2018-09-21T00:31:11.874Z,91.67
2018-09-21T00:32:11.858Z,92.63
2018-09-21T00:33:11.841Z,92.15
2018-09-21T00:34:11.828Z,92.21
2018-09-21T00:35:11.804Z,91.82
2018-09-21T00:36:11.795Z,91.82
2018-09-21T00:37:11.777Z,91.92
2018-09-21T00:38:11.759Z,91.53
2018-09-21T00:39:11.740Z,92.01
2018-09-21T00:40:11.730Z,91.82
2018-09-21T00:41:11.713Z,92.01
2018-09-21T00:42:11.696Z,92.11
2018-09-21T00:43:11.676Z,92.58
2018-09-21T00:44:11.664Z,92.49
2018-09-21T00:45:11.650Z,93.07
2018-09-21T00:46:11.630Z,92.58
2018-09-21T00:47:11.619Z,92.97
2018-09-21T00:48:11.598Z,93.26
2018-09-21T00:49:11.582Z,92.87
2018-09-21T00:50:11.564Z,92.68
2018-09-21T00:51:11.557Z,92.21
2018-09-21T00:52:11.540Z,92.97
2018-09-21T00:53:11.517Z,93.64
2018-09-21T00:54:11.502Z,92.78
2018-09-21T00:55:11.484Z,92.68
2018-09-21T00:56:11.469Z,92.01
2018-09-21T00:57:11.461Z,91.82
2018-09-21T00:58:11.437Z,91.72
2018-09-21T00:59:11.420Z,91.72
2018-09-21T01:00:11.405Z,91.25
2018-09-21T01:01:11.386Z,91.25
2018-09-21T01:02:11.371Z,91.63
2018-09-21T01:03:11.358Z,91.05
2018-09-21T01:04:11.341Z,90.96
2018-09-21T01:05:11.322Z,92.21
2018-09-21T01:06:11.311Z,91.82
2018-09-21T01:07:11.286Z,91.63
2018-09-21T01:08:11.273Z,92.01
2018-09-21T01:09:11.257Z,93.07
2018-09-21T01:10:11.249Z,93.35
2018-09-21T01:11:11.230Z,93.40
2018-09-21T01:12:11.207Z,94.26
2018-09-21T01:13:11.191Z,94.36
2018-09-21T01:14:11.175Z,94.93
2018-09-21T01:15:11.156Z,94.65
2018-09-21T01:16:11.149Z,95.03
2018-09-21T01:17:11.125Z,94.74
2018-09-21T01:18:11.107Z,94.07
2018-09-21T01:19:11.093Z,93.88
2018-09-21T01:20:11.075Z,94.31
2018-09-21T01:21:11.059Z,94.40
2018-09-21T01:22:11.045Z,94.17
2018-09-21T01:23:11.069Z,94.07
2018-09-21T01:24:11.012Z,94.21
2018-09-21T01:25:10.995Z,94.21
2018-09-21T01:26:10.973Z,94.31
2018-09-21T01:27:10.960Z,94.50
2018-09-21T01:28:10.949Z,94.69
2018-09-21T01:29:10.931Z,94.60
2018-09-21T01:30:10.910Z,94.40
2018-09-21T01:31:10.902Z,94.98
2018-09-21T01:32:10.881Z,94.98
2018-09-21T01:33:11.365Z,94.12
2018-09-21T01:34:10.851Z,94.50
2018-09-21T01:35:10.830Z,94.31
2018-09-21T01:36:10.817Z,95.07
2018-09-21T01:37:10.799Z,94.40
2018-09-21T01:38:10.780Z,93.93
2018-09-21T01:39:10.767Z,93.93
2018-09-21T01:40:10.751Z,93.16
2018-09-21T01:41:10.735Z,92.87
2018-09-21T01:42:10.715Z,92.01
2018-09-21T01:43:10.702Z,91.72
2018-09-21T01:44:10.681Z,91.05
2018-09-21T01:45:10.666Z,92.11
2018-09-21T01:46:10.648Z,92.49
2018-09-21T01:47:10.632Z,92.97
2018-09-21T01:48:10.620Z,92.21
2018-09-21T01:49:10.601Z,92.87
2018-09-21T01:50:10.583Z,92.87
2018-09-21T01:51:10.572Z,93.16
2018-09-21T01:52:10.550Z,93.35
2018-09-21T01:53:10.535Z,93.64
2018-09-21T01:54:10.517Z,93.45
2018-09-21T01:55:10.503Z,94.12
2018-09-21T01:56:10.487Z,94.21
2018-09-21T01:57:10.464Z,93.35
2018-09-21T01:58:10.449Z,93.74
2018-09-21T01:59:10.435Z,93.93
2018-09-21T02:00:10.416Z,94.69
2018-09-21T02:01:10.407Z,94.89
2018-09-21T02:02:10.385Z,94.31
2018-09-21T02:03:10.365Z,94.12
2018-09-21T02:04:10.356Z,94.40
2018-09-21T02:05:10.339Z,94.21
2018-09-21T02:06:10.316Z,94.89
2018-09-21T02:07:10.307Z,94.89
2018-09-21T02:08:10.283Z,94.79
2018-09-21T02:09:10.265Z,94.40
2018-09-21T02:10:10.253Z,94.89
2018-09-21T02:11:10.233Z,94.31
2018-09-21T02:12:10.225Z,94.98
2018-09-21T02:13:10.197Z,94.69
2018-09-21T02:14:10.188Z,94.21
2018-09-21T02:15:10.171Z,94.02
2018-09-21T02:16:10.155Z,93.54
2018-09-21T02:17:10.139Z,93.35
2018-09-21T02:18:10.121Z,93.64
2018-09-21T02:19:10.105Z,93.45
2018-09-21T02:20:10.086Z,93.40
2018-09-21T02:21:10.071Z,93.40
2018-09-21T02:22:10.051Z,93.45
2018-09-21T02:23:10.034Z,93.93
2018-09-21T02:24:10.021Z,93.54
2018-09-21T02:25:10.003Z,93.07
2018-09-21T02:26:09.986Z,93.83
2018-09-21T02:27:09.968Z,93.35
2018-09-21T02:28:09.953Z,93.35
2018-09-21T02:29:09.933Z,93.07
2018-09-21T02:30:09.923Z,93.69
2018-09-21T02:31:09.905Z,94.07
2018-09-21T02:32:09.888Z,94.07
2018-09-21T02:33:09.870Z,93.30
2018-09-21T02:34:09.859Z,94.26
2018-09-21T02:35:09.836Z,93.59
2018-09-21T02:36:09.828Z,94.74
2018-09-21T02:37:09.809Z,94.17
2018-09-21T02:38:09.787Z,94.17
2018-09-21T02:39:09.769Z,94.35
2018-09-21T02:40:09.751Z,94.26
2018-09-21T02:41:09.739Z,94.26
2018-09-21T02:42:09.721Z,93.49
2018-09-21T02:43:09.709Z,93.40
2018-09-21T02:44:09.690Z,93.59
2018-09-21T02:45:09.675Z,93.40
2018-09-21T02:46:09.661Z,93.40
2018-09-21T02:47:09.642Z,92.10
2018-09-21T02:48:09.630Z,91.86
2018-09-21T02:49:09.608Z,92.58
2018-09-21T02:50:09.593Z,92.87
2018-09-21T02:51:09.572Z,92.39
2018-09-21T02:52:09.559Z,93.54
2018-09-21T02:53:09.539Z,92.35
2018-09-21T02:54:09.527Z,92.87
2018-09-21T02:55:09.514Z,92.68
2018-09-21T02:56:09.495Z,93.73
2018-09-21T02:57:09.475Z,94.40
2018-09-21T02:58:09.460Z,94.59
2018-09-21T02:59:09.453Z,94.21
2018-09-21T03:00:09.424Z,94.59
2018-09-21T03:01:09.412Z,94.40
2018-09-21T03:02:09.396Z,93.73
2018-09-21T03:03:09.378Z,92.58
2018-09-21T03:04:09.361Z,93.63
2018-09-21T03:05:09.345Z,93.54
2018-09-21T03:06:09.334Z,92.44
2018-09-21T03:07:09.313Z,92.82
2018-09-21T03:08:09.299Z,92.91
2018-09-21T03:09:09.285Z,92.05
2018-09-21T03:10:09.263Z,93.11
2018-09-21T03:11:09.241Z,92.72
2018-09-21T03:12:09.232Z,91.86
2018-09-21T03:13:09.250Z,92.34
2018-09-21T03:14:09.197Z,91.77
2018-09-21T03:15:09.180Z,92.34
2018-09-21T03:16:09.169Z,91.96
2018-09-21T03:17:09.151Z,91.77
2018-09-21T03:18:09.127Z,91.91
2018-09-21T03:19:09.120Z,91.42
2018-09-21T03:20:09.100Z,91.72
2018-09-21T03:21:09.081Z,92.00
2018-09-21T03:22:09.063Z,92.19
2018-09-21T03:23:09.046Z,91.33
2018-09-21T03:24:09.085Z,90.95
2018-09-21T03:25:09.013Z,91.72
2018-09-21T03:26:09.003Z,91.42
2018-09-21T03:27:08.987Z,91.72
2018-09-21T03:28:08.967Z,91.72
2018-09-21T03:29:08.960Z,90.28
2018-09-21T03:30:08.937Z,90.37
2018-09-21T03:31:08.919Z,91.05
2018-09-21T03:32:08.925Z,90.66
2018-09-21T03:33:08.889Z,91.05
2018-09-21T03:34:08.881Z,91.52
2018-09-21T03:35:08.863Z,91.62
2018-09-21T03:36:08.841Z,91.42
2018-09-21T03:37:08.824Z,91.24
2018-09-21T03:38:08.806Z,90.37
2018-09-21T03:39:08.804Z,90.18
2018-09-21T03:40:08.779Z,90.37
2018-09-21T03:41:08.760Z,90.32
2018-09-21T03:42:08.744Z,90.32
2018-09-21T03:43:08.735Z,90.22
2018-09-21T03:44:08.713Z,90.61
2018-09-21T03:45:08.699Z,90.32
2018-09-21T03:46:08.684Z,89.65
2018-09-21T03:47:08.665Z,90.03
2018-09-21T03:48:08.650Z,90.42
2018-09-21T03:49:08.633Z,90.61
2018-09-21T03:50:08.620Z,90.70
2018-09-21T03:51:08.603Z,90.22
2018-09-21T03:52:08.583Z,90.32
2018-09-21T03:53:08.571Z,90.32
2018-09-21T03:54:08.551Z,90.22
2018-09-21T03:55:08.539Z,90.42
2018-09-21T03:56:08.525Z,90.03
2018-09-21T03:57:08.510Z,89.75
2018-09-21T03:58:08.503Z,90.52
2018-09-21T03:59:08.482Z,90.03
2018-09-21T04:00:08.461Z,90.03
2018-09-21T04:01:08.497Z,89.65
2018-09-21T04:02:08.428Z,89.26
2018-09-21T04:03:08.412Z,89.94
2018-09-21T04:04:08.392Z,89.07
2018-09-21T04:05:08.382Z,88.98
2018-09-21T04:06:08.362Z,89.07
2018-09-21T04:07:08.345Z,88.79
2018-09-21T04:08:08.332Z,89.17
2018-09-21T04:09:08.315Z,89.26
2018-09-21T04:10:08.295Z,89.65
2018-09-21T04:11:08.294Z,89.46
2018-09-21T04:12:08.272Z,89.84
2018-09-21T04:13:08.257Z,89.65
2018-09-21T04:14:08.241Z,89.99
2018-09-21T04:15:08.228Z,89.84
2018-09-21T04:16:08.204Z,89.55
2018-09-21T04:17:08.188Z,89.70
2018-09-21T04:18:08.226Z,89.79
2018-09-21T04:19:08.158Z,90.70
2018-09-21T04:20:08.153Z,90.75
2018-09-21T04:21:08.124Z,90.22
2018-09-21T04:22:08.164Z,90.52
2018-09-21T04:23:08.145Z,90.28
2018-09-21T04:24:08.082Z,91.24
2018-09-21T04:25:08.066Z,91.62
2018-09-21T04:26:08.053Z,91.52
2018-09-21T04:27:08.033Z,91.24
2018-09-21T04:28:08.018Z,91.62
2018-09-21T04:29:08.000Z,91.62
2018-09-21T04:30:07.984Z,91.38
2018-09-21T04:31:07.968Z,91.19
2018-09-21T04:32:07.958Z,91.28
2018-09-21T04:33:07.938Z,90.99
2018-09-21T04:34:07.922Z,90.95
2018-09-21T04:35:07.909Z,90.03
2018-09-21T04:36:07.956Z,90.32
2018-09-21T04:37:07.875Z,90.70
2018-09-21T04:38:07.861Z,91.28
2018-09-21T04:39:07.845Z,90.70
2018-09-21T04:40:07.833Z,90.80
2018-09-21T04:41:07.818Z,91.09
2018-09-21T04:42:07.794Z,90.99
2018-09-21T04:43:07.780Z,91.19
2018-09-21T04:44:07.768Z,90.99
2018-09-21T04:45:07.750Z,90.13
2018-09-21T04:46:07.738Z,90.13
2018-09-21T04:47:07.722Z,90.70
2018-09-21T04:48:07.706Z,89.46
2018-09-21T04:49:07.692Z,90.22
2018-09-21T04:50:07.671Z,90.22
2018-09-21T04:51:07.663Z,90.22
2018-09-21T04:52:07.644Z,90.42
2018-09-21T04:53:07.631Z,90.32
2018-09-21T04:54:07.617Z,90.42
2018-09-21T04:55:07.601Z,90.32
2018-09-21T04:56:07.579Z,90.22
2018-09-21T04:57:07.568Z,90.61
2018-09-21T04:58:07.549Z,90.70
2018-09-21T04:59:07.532Z,90.22
2018-09-21T05:00:07.514Z,90.70
2018-09-21T05:01:07.502Z,90.70
2018-09-21T05:02:07.484Z,90.61
2018-09-21T05:03:07.468Z,90.52
2018-09-21T05:04:07.454Z,89.75
2018-09-21T05:05:07.442Z,90.03
2018-09-21T05:06:07.422Z,89.94
2018-09-21T05:07:07.408Z,90.52
2018-09-21T05:08:07.395Z,89.84
2018-09-21T05:09:07.382Z,90.42
2018-09-21T05:10:07.360Z,90.03
2018-09-21T05:11:07.342Z,90.03
2018-09-21T05:12:07.333Z,90.03
2018-09-21T05:13:07.316Z,90.13
2018-09-21T05:14:07.298Z,89.84
2018-09-21T05:15:07.281Z,89.84
2018-09-21T05:16:07.268Z,90.22
2018-09-21T05:17:07.252Z,90.03
2018-09-21T05:18:07.233Z,90.22
2018-09-21T05:19:07.222Z,90.03
2018-09-21T05:20:07.209Z,90.22
2018-09-21T05:21:07.186Z,89.84
2018-09-21T05:22:07.173Z,90.22
2018-09-21T05:23:07.160Z,89.65
2018-09-21T05:24:07.141Z,89.65
2018-09-21T05:25:07.144Z,90.03
2018-09-21T05:26:07.110Z,89.94
2018-09-21T05:27:07.101Z,89.75
2018-09-21T05:28:07.090Z,89.94
2018-09-21T05:29:07.062Z,89.89
2018-09-21T05:30:07.046Z,89.79
2018-09-21T05:31:07.037Z,90.08
2018-09-21T05:32:07.020Z,89.89
2018-09-21T05:33:07.005Z,89.69
2018-09-21T05:34:07.001Z,89.89
2018-09-21T05:35:07.037Z,89.31
2018-09-21T05:36:06.957Z,89.40
2018-09-21T05:37:06.942Z,89.22
2018-09-21T05:38:06.924Z,89.02
2018-09-21T05:39:06.912Z,88.93
2018-09-21T05:40:06.894Z,88.83
2018-09-21T05:41:06.877Z,89.02
2018-09-21T05:42:06.864Z,88.93
2018-09-21T05:43:06.846Z,88.97
2018-09-21T05:44:06.837Z,88.59
2018-09-21T05:45:06.816Z,88.01
2018-09-21T05:46:06.804Z,87.92
2018-09-21T05:47:06.787Z,87.82
2018-09-21T05:48:06.770Z,86.85
2018-09-21T05:49:06.753Z,86.85
2018-09-21T05:50:06.738Z,87.15
2018-09-21T05:51:06.722Z,86.85
2018-09-21T05:52:06.708Z,86.42
2018-09-21T05:53:06.700Z,86.52
2018-09-21T05:54:06.677Z,86.04
2018-09-21T05:55:06.662Z,86.04
2018-09-21T05:56:06.706Z,86.22
2018-09-21T05:57:06.632Z,85.36
2018-09-21T05:58:06.618Z,85.55
2018-09-21T05:59:06.610Z,85.27
2018-09-21T06:00:06.588Z,85.27
2018-09-21T06:01:06.581Z,84.50
2018-09-21T06:02:06.566Z,84.54
2018-09-21T06:03:06.544Z,84.34
2018-09-21T06:04:06.528Z,84.44
2018-09-21T06:05:06.514Z,83.58
2018-09-21T06:06:06.501Z,83.58
2018-09-21T06:07:06.481Z,84.34
2018-09-21T06:08:06.491Z,84.73
2018-09-21T06:09:06.454Z,83.48
2018-09-21T06:10:06.437Z,83.77
2018-09-21T06:11:06.422Z,83.39
2018-09-21T06:12:06.410Z,84.06
2018-09-21T06:13:06.402Z,83.48
2018-09-21T06:14:06.435Z,83.77
2018-09-21T06:15:06.369Z,83.29
2018-09-21T06:16:06.348Z,83.29
2018-09-21T06:17:06.336Z,83.09
2018-09-21T06:18:06.320Z,82.61
2018-09-21T06:19:06.305Z,82.90
2018-09-21T06:20:12.081Z,82.27
2018-09-21T06:21:06.307Z,82.56
2018-09-21T06:22:06.262Z,81.88
2018-09-21T06:23:06.332Z,81.70
2018-09-21T06:24:06.230Z,81.60
2018-09-21T06:25:06.221Z,81.70
2018-09-21T06:26:06.205Z,81.30
2018-09-21T06:27:06.186Z,81.02
2018-09-21T06:28:06.181Z,80.54
2018-09-21T06:29:06.156Z,80.73
2018-09-21T06:30:06.143Z,80.48
2018-09-21T06:31:06.125Z,80.48
2018-09-21T06:32:06.230Z,80.00
2018-09-21T06:33:06.104Z,79.71
2018-09-21T06:34:06.083Z,79.81
2018-09-21T06:35:06.070Z,79.03
2018-09-21T06:36:06.058Z,78.79
2018-09-21T06:37:06.038Z,78.59
2018-09-21T06:38:06.056Z,78.11
2018-09-21T06:39:06.014Z,78.31
2018-09-21T06:40:05.997Z,77.73
2018-09-21T06:41:06.052Z,77.73
2018-09-21T06:42:05.964Z,77.53
2018-09-21T06:43:05.954Z,77.44
2018-09-21T06:44:05.941Z,76.48
2018-09-21T06:45:05.926Z,76.51
2018-09-21T06:46:05.912Z,76.51
2018-09-21T06:47:05.894Z,75.65
2018-09-21T06:48:05.881Z,75.45
2018-09-21T06:49:05.870Z,75.45
2018-09-21T06:50:05.858Z,75.55
2018-09-21T06:51:05.840Z,74.91
2018-09-21T06:52:05.827Z,74.72
2018-09-21T06:53:05.813Z,74.52
2018-09-21T06:54:05.800Z,74.24
2018-09-21T06:55:05.785Z,74.62
2018-09-21T06:56:05.776Z,73.21
2018-09-21T06:57:05.759Z,73.41
2018-09-21T06:58:05.742Z,72.83
2018-09-21T06:59:05.734Z,72.34
2018-09-21T07:00:05.719Z,72.73
2018-09-21T07:01:05.702Z,71.90
2018-09-21T07:02:05.846Z,72.67
2018-09-21T07:03:05.675Z,71.42
2018-09-21T07:04:05.668Z,71.12
2018-09-21T07:05:05.646Z,70.84
2018-09-21T07:06:05.635Z,69.52
2018-09-21T07:07:05.631Z,69.71
2018-09-21T07:08:05.604Z,69.52
2018-09-21T07:09:05.593Z,68.59
2018-09-21T07:10:05.629Z,68.01
2018-09-21T07:11:05.576Z,67.82
2018-09-21T07:12:05.555Z,67.14
2018-09-21T07:13:05.538Z,66.08
2018-09-21T07:14:05.534Z,66.20
2018-09-21T07:15:05.516Z,65.92
2018-09-21T07:16:05.500Z,64.98
2018-09-21T07:17:05.489Z,65.17
2018-09-21T07:18:05.523Z,64.69
2018-09-21T07:19:05.462Z,64.89
2018-09-21T07:20:05.452Z,64.89
2018-09-21T07:21:05.438Z,64.11
2018-09-21T07:22:05.429Z,63.82
2018-09-21T07:23:05.415Z,64.34
2018-09-21T07:24:05.406Z,63.46
2018-09-21T07:25:05.389Z,63.56
2018-09-21T07:26:05.373Z,62.24
2018-09-21T07:27:05.363Z,62.34
2018-09-21T07:28:05.352Z,62.17
2018-09-21T07:29:05.344Z,61.30
2018-09-21T07:30:05.331Z,60.65
2018-09-21T07:31:05.366Z,60.36
2018-09-21T07:32:05.312Z,59.97
2018-09-21T07:33:05.291Z,59.39
2018-09-21T07:34:05.281Z,59.69
2018-09-21T07:35:05.268Z,59.69
2018-09-21T07:36:05.256Z,60.36
2018-09-21T07:37:05.250Z,59.39
2018-09-21T07:38:05.234Z,59.49
2018-09-21T07:39:05.224Z,59.66
2018-09-21T07:40:05.210Z,60.33
2018-09-21T07:41:05.207Z,60.40
2018-09-21T07:42:05.192Z,61.36
2018-09-21T07:43:05.326Z,61.95
2018-09-21T07:44:05.170Z,61.85
2018-09-21T07:45:05.163Z,61.76
2018-09-21T07:46:05.145Z,61.36
2018-09-21T07:47:05.137Z,61.95
2018-09-21T07:48:05.125Z,62.24
2018-09-21T07:49:05.186Z,61.46
2018-09-21T07:50:05.102Z,61.27
2018-09-21T07:51:05.087Z,60.33
2018-09-21T07:52:05.088Z,60.72
2018-09-21T07:53:05.062Z,60.62
2018-09-21T07:54:05.057Z,60.14
2018-09-21T07:55:05.044Z,60.33
2018-09-21T07:56:05.031Z,60.55
2018-09-21T07:57:05.026Z,60.17
2018-09-21T07:58:05.008Z,60.07
2018-09-21T07:59:04.996Z,59.39
2018-09-21T08:00:04.998Z,59.30
2018-09-21T08:01:04.987Z,58.84
2018-09-21T08:02:04.960Z,57.97
2018-09-21T08:03:04.962Z,58.39
2018-09-21T08:04:04.946Z,57.25
2018-09-21T08:05:04.972Z,55.43
2018-09-21T08:06:04.923Z,54.80
2018-09-21T08:07:04.931Z,54.25
2018-09-21T08:08:04.912Z,53.11
2018-09-21T08:09:04.892Z,51.19
2018-09-21T08:10:04.882Z,50.41
2018-09-21T08:11:04.872Z,50.14
2018-09-21T08:12:04.862Z,49.88
2018-09-21T08:13:04.856Z,49.10
2018-09-21T08:14:04.842Z,48.73
2018-09-21T08:15:04.834Z,48.85
2018-09-21T08:16:04.826Z,47.19
2018-09-21T08:17:04.818Z,47.00
2018-09-21T08:18:04.806Z,46.80
2018-09-21T08:19:04.800Z,47.49
2018-09-21T08:20:04.794Z,47.19
2018-09-21T08:21:04.782Z,46.51
2018-09-21T08:22:04.770Z,45.65
2018-09-21T08:23:04.764Z,46.92
2018-09-21T08:24:04.760Z,46.04
2018-09-21T08:25:04.775Z,45.56
2018-09-21T08:26:04.742Z,45.05
2018-09-21T08:27:04.733Z,45.92
2018-09-21T08:28:04.730Z,45.81
2018-09-21T08:29:04.722Z,46.30
2018-09-21T08:30:04.710Z,46.78
2018-09-21T08:31:04.705Z,46.47
2018-09-21T08:32:04.698Z,47.05
2018-09-21T08:33:04.736Z,47.44
2018-09-21T08:34:04.676Z,46.95
2018-09-21T08:35:04.672Z,46.95
2018-09-21T08:36:04.663Z,47.05
2018-09-21T08:37:04.717Z,47.05
2018-09-21T08:38:04.674Z,47.34
2018-09-21T08:39:04.644Z,46.95
2018-09-21T08:40:04.635Z,46.97
2018-09-21T08:41:04.632Z,46.00
2018-09-21T08:42:04.620Z,45.42
2018-09-21T08:43:04.615Z,45.61
2018-09-21T08:44:04.604Z,45.83
2018-09-21T08:45:04.598Z,45.73
2018-09-21T08:46:04.595Z,45.85
2018-09-21T08:47:04.582Z,45.19
2018-09-21T08:48:04.582Z,44.12
2018-09-21T08:49:04.570Z,44.48
2018-09-21T08:50:04.565Z,44.68
2018-09-21T08:51:04.552Z,43.90
2018-09-21T08:52:04.548Z,44.21
2018-09-21T08:53:04.539Z,44.14
2018-09-21T08:54:04.528Z,43.65
2018-09-21T08:55:04.556Z,43.26
2018-09-21T08:56:04.512Z,43.92
2018-09-21T08:57:04.510Z,44.02
2018-09-21T08:58:04.503Z,43.73
2018-09-21T08:59:04.492Z,43.85
2018-09-21T09:00:04.488Z,43.46
2018-09-21T09:01:04.480Z,44.14
2018-09-21T09:02:04.472Z,43.14
2018-09-21T09:03:04.541Z,44.12
2018-09-21T09:04:04.458Z,43.92
2018-09-21T09:05:04.450Z,44.43
2018-09-21T09:06:04.444Z,43.65
2018-09-21T09:07:04.432Z,43.57
2018-09-21T09:08:04.424Z,42.30
2018-09-21T09:09:04.420Z,42.50
2018-09-21T09:10:04.424Z,41.91
2018-09-21T09:11:04.405Z,42.30
2018-09-21T09:12:04.402Z,42.40
2018-09-21T09:13:04.392Z,43.18
2018-09-21T09:14:04.383Z,42.61
2018-09-21T09:15:04.379Z,42.13
2018-09-21T09:16:04.372Z,42.13
2018-09-21T09:17:04.362Z,42.13
2018-09-21T09:18:04.359Z,40.95
2018-09-21T09:19:04.350Z,41.25
2018-09-21T09:20:04.340Z,41.54
2018-09-21T09:21:04.332Z,41.46
2018-09-21T09:22:04.333Z,40.60
2018-09-21T09:23:04.366Z,39.53
2018-09-21T09:24:04.314Z,39.43
2018-09-21T09:25:04.378Z,39.33
2018-09-21T09:26:04.304Z,38.37
2018-09-21T09:27:04.293Z,38.18
2018-09-21T09:28:04.286Z,37.98
2018-09-21T09:29:04.280Z,37.59
2018-09-21T09:30:04.331Z,37.59
2018-09-21T09:31:04.267Z,37.98
2018-09-21T09:32:04.259Z,38.47
2018-09-21T09:33:04.253Z,37.88
2018-09-21T09:34:04.244Z,36.90
2018-09-21T09:35:04.237Z,36.71
2018-09-21T09:36:04.236Z,36.90
2018-09-21T09:37:04.227Z,36.51
2018-09-21T09:38:04.224Z,36.90
2018-09-21T09:39:04.214Z,36.88
2018-09-21T09:40:04.208Z,37.19
2018-09-21T09:41:04.205Z,37.39
2018-09-21T09:42:04.198Z,37.10
2018-09-21T09:43:04.358Z,37.00
2018-09-21T09:44:04.192Z,36.63
2018-09-21T09:45:04.176Z,35.96
2018-09-21T09:46:04.174Z,35.85
2018-09-21T09:47:04.160Z,36.45
2018-09-21T09:48:04.156Z,36.45
2018-09-21T09:49:04.276Z,35.66
2018-09-21T09:50:04.145Z,35.96
2018-09-21T09:51:04.140Z,35.66
2018-09-21T09:52:04.137Z,35.75
2018-09-21T09:53:04.128Z,36.02
2018-09-21T09:54:04.116Z,36.43
2018-09-21T09:55:04.112Z,36.33
2018-09-21T09:56:04.114Z,36.04
2018-09-21T09:57:04.107Z,35.85
2018-09-21T09:58:04.103Z,36.14
2018-09-21T09:59:04.091Z,35.66
2018-09-21T10:00:04.086Z,36.16
2018-09-21T10:01:04.116Z,36.06
2018-09-21T10:02:04.070Z,36.57
2018-09-21T10:03:04.068Z,36.08
2018-09-21T10:04:04.064Z,35.19
2018-09-21T10:05:04.062Z,35.29
2018-09-21T10:06:04.046Z,35.19
2018-09-21T10:07:04.046Z,35.10
2018-09-21T10:08:04.042Z,34.61
2018-09-21T10:09:04.034Z,35.08
2018-09-21T10:10:04.031Z,35.85
2018-09-21T10:11:04.021Z,35.94
2018-09-21T10:12:04.018Z,36.24
2018-09-21T10:13:04.014Z,36.04
2018-09-21T10:14:04.009Z,35.75
2018-09-21T10:15:04.005Z,36.12
2018-09-21T10:16:04.001Z,36.30
2018-09-21T10:17:04.001Z,37.16
2018-09-21T10:18:03.986Z,37.16
2018-09-21T10:19:03.984Z,37.18
2018-09-21T10:20:03.980Z,36.69
2018-09-21T10:21:03.968Z,36.80
2018-09-21T10:22:03.968Z,36.51
2018-09-21T10:23:03.959Z,36.22
2018-09-21T10:24:04.011Z,36.41
2018-09-21T10:25:03.951Z,35.63
2018-09-21T10:26:03.942Z,36.32
2018-09-21T10:27:03.963Z,35.44
2018-09-21T10:28:04.133Z,35.83
2018-09-21T10:29:03.925Z,35.81
2018-09-21T10:30:03.928Z,36.40
2018-09-21T10:31:03.921Z,36.10
2018-09-21T10:32:03.934Z,36.40
2018-09-21T10:33:03.908Z,36.22
2018-09-21T10:34:03.903Z,35.27
2018-09-21T10:35:03.900Z,35.29
2018-09-21T10:36:03.889Z,34.21
2018-09-21T10:37:03.959Z,34.23
2018-09-21T10:38:03.881Z,33.64
2018-09-21T10:39:03.957Z,34.21
2018-09-21T10:40:03.961Z,34.41
2018-09-21T10:41:03.874Z,35.19
2018-09-21T10:42:03.863Z,34.13
2018-09-21T10:43:03.936Z,33.25
2018-09-21T10:44:03.851Z,33.36
2018-09-21T10:45:03.851Z,32.87
2018-09-21T10:46:03.843Z,33.26
2018-09-21T10:47:03.836Z,32.87
2018-09-21T10:48:03.833Z,32.66
2018-09-21T10:49:03.836Z,32.92
2018-09-21T10:50:03.823Z,33.67
2018-09-21T10:51:03.816Z,34.34
2018-09-21T10:52:03.811Z,35.11
2018-09-21T10:53:03.814Z,35.50
2018-09-21T10:54:03.806Z,35.30
2018-09-21T10:55:03.797Z,35.50
2018-09-21T10:56:03.793Z,35.40
2018-09-21T10:57:03.793Z,35.13
2018-09-21T10:58:03.793Z,35.14
2018-09-21T10:59:03.780Z,34.96
2018-09-21T11:00:03.775Z,34.39
2018-09-21T11:01:03.790Z,33.82
2018-09-21T11:02:03.762Z,33.74
2018-09-21T11:03:03.757Z,32.95
2018-09-21T11:04:03.759Z,32.56
2018-09-21T11:05:03.755Z,32.27
2018-09-21T11:06:03.743Z,32.76
2018-09-21T11:07:03.777Z,31.97
2018-09-21T11:08:03.733Z,31.89
2018-09-21T11:09:03.731Z,31.97
2018-09-21T11:10:03.726Z,31.19
2018-09-21T11:11:03.717Z,31.10
2018-09-21T11:12:03.715Z,29.94
2018-09-21T11:13:03.824Z,30.35
2018-09-21T11:14:03.702Z,29.66
2018-09-21T11:15:03.707Z,29.58
2018-09-21T11:16:03.693Z,28.68
2018-09-21T11:17:03.690Z,28.97
2018-09-21T11:18:03.683Z,29.64
2018-09-21T11:19:03.681Z,29.73
2018-09-21T11:20:46.208Z,31.47
2018-09-21T11:21:46.225Z,31.94
2018-09-21T11:22:46.203Z,32.03
2018-09-21T11:23:46.197Z,32.90
2018-09-21T11:24:46.190Z,33.28
2018-09-21T11:25:46.191Z,33.46
2018-09-21T11:26:46.184Z,33.67
2018-09-21T11:27:46.177Z,33.90
2018-09-21T11:28:46.175Z,32.25
2018-09-21T11:29:46.175Z,32.38
2018-09-21T11:30:46.179Z,31.33
2018-09-21T11:31:46.163Z,30.85
2018-09-21T11:32:46.155Z,29.69
2018-09-21T11:33:46.151Z,29.21
2018-09-21T11:34:46.145Z,29.03
2018-09-21T11:35:46.143Z,28.45
2018-09-21T11:36:46.137Z,28.16
2018-09-21T11:37:46.149Z,28.08
2018-09-21T11:38:46.135Z,28.27
2018-09-21T11:39:46.125Z,28.19
2018-09-21T11:40:46.120Z,27.11
2018-09-21T11:41:46.115Z,27.01
2018-09-21T11:42:46.317Z,27.13
2018-09-21T11:43:46.108Z,27.13
2018-09-21T11:44:46.101Z,26.83
2018-09-21T11:45:46.099Z,27.34
2018-09-21T11:46:46.135Z,26.94
2018-09-21T11:47:46.121Z,25.96
2018-09-21T11:48:46.085Z,25.96
2018-09-21T11:49:46.085Z,26.06
2018-09-21T11:50:46.077Z,27.22
2018-09-21T11:51:46.081Z,27.01
2018-09-21T11:52:46.079Z,27.58
2018-09-21T11:53:46.071Z,27.87
2018-09-21T11:54:46.081Z,28.83
2018-09-21T11:55:46.063Z,29.11
2018-09-21T11:56:46.061Z,29.21
2018-09-21T11:57:46.057Z,29.44
2018-09-21T11:58:46.055Z,28.17
2018-09-21T11:59:46.050Z,28.08
2018-09-21T12:00:46.051Z,27.75
2018-09-21T12:01:46.067Z,29.10
2018-09-21T12:02:46.045Z,29.96
2018-09-21T12:03:46.037Z,30.15
2018-09-21T12:04:46.033Z,29.38
2018-09-21T12:05:46.032Z,29.59
2018-09-21T12:06:46.028Z,29.02
2018-09-21T12:07:46.027Z,29.69
2018-09-21T12:08:46.025Z,29.20
2018-09-21T12:09:46.013Z,30.15
2018-09-21T12:10:46.011Z,30.43
2018-09-21T12:11:46.005Z,31.30
2018-09-21T12:12:46.009Z,31.79
2018-09-21T12:13:45.997Z,31.79
2018-09-21T12:14:45.994Z,31.33
2018-09-21T12:15:45.995Z,30.46
2018-09-21T12:16:45.988Z,29.79
2018-09-21T12:17:45.981Z,29.51
2018-09-21T12:18:45.979Z,29.61
2018-09-21T12:19:45.977Z,29.13
2018-09-21T12:20:45.986Z,29.24
2018-09-21T12:21:45.969Z,28.52
2018-09-21T12:22:45.970Z,29.10
2018-09-21T12:23:45.955Z,29.69
2018-09-21T12:24:45.960Z,29.87
2018-09-21T12:25:45.951Z,30.07
2018-09-21T12:26:45.949Z,31.02
2018-09-21T12:27:45.945Z,31.30
2018-09-21T12:28:45.938Z,32.37
2018-09-21T12:29:45.938Z,32.56
2018-09-21T12:30:45.938Z,32.35
2018-09-21T12:32:06.613Z,33.02
2018-09-21T12:33:06.611Z,33.22
2018-09-21T12:34:06.602Z,32.90
2018-09-21T12:35:06.599Z,33.58
2018-09-21T12:36:06.678Z,34.06
2018-09-21T12:37:06.586Z,34.55
2018-09-21T12:38:06.583Z,34.54
2018-09-21T12:39:06.580Z,35.13
2018-09-21T12:40:06.573Z,35.40
2018-09-21T12:41:06.565Z,35.40
2018-09-21T12:42:06.559Z,35.50
2018-09-21T12:43:06.561Z,36.08
2018-09-21T12:44:06.554Z,36.18
2018-09-21T12:45:06.548Z,36.28
2018-09-21T12:46:06.545Z,35.22
2018-09-21T12:47:06.539Z,35.91
2018-09-21T12:48:06.534Z,35.63
2018-09-21T12:49:06.528Z,35.34
2018-09-21T12:50:06.519Z,35.44
2018-09-21T12:51:06.518Z,35.04
2018-09-21T12:52:06.557Z,34.55
2018-09-21T12:53:06.500Z,35.14